sensor_id;sensor_type;location;lat;lon;timestamp;temperature;humidity
30150;DHT22;16962;48.646;9.026;2022-10-22T00:01:13;11.70;99.90
30150;DHT22;16962;48.646;9.026;2022-10-22T00:04:03;11.70;99.90
30150;DHT22;16962;48.646;9.026;2022-10-22T00:06:50;11.70;99.90
30150;DHT22;16962;48.646;9.026;2022-10-22T00:09:37;11.70;99.90
30150;DHT22;16962;48.646;9.026;2022-10-22T00:12:25;11.70;99.90
30150;DHT22;16962;48.646;9.026;2022-10-22T00:15:12;11.70;99.90
30150;DHT22;16962;48.646;9.026;2022-10-22T00:18:00;11.70;99.90
30150;DHT22;16962;48.646;9.026;2022-10-22T00:20:59;11.70;99.90
30150;DHT22;16962;48.646;9.026;2022-10-22T00:23:47;11.70;99.90
30150;DHT22;16962;48.646;9.026;2022-10-22T00:26:34;11.70;99.90
30150;DHT22;16962;48.646;9.026;2022-10-22T00:29:21;11.70;99.90
30150;DHT22;16962;48.646;9.026;2022-10-22T00:32:08;11.70;99.90
30150;DHT22;16962;48.646;9.026;2022-10-22T00:34:56;11.80;99.90
30150;DHT22;16962;48.646;9.026;2022-10-22T00:37:44;11.80;99.90
30150;DHT22;16962;48.646;9.026;2022-10-22T00:40:31;11.80;99.90
30150;DHT22;16962;48.646;9.026;2022-10-22T00:43:18;11.80;99.90
30150;DHT22;16962;48.646;9.026;2022-10-22T00:46:05;11.80;99.90
30150;DHT22;16962;48.646;9.026;2022-10-22T00:48:55;11.80;99.90
30150;DHT22;16962;48.646;9.026;2022-10-22T00:51:43;11.80;99.90
30150;DHT22;16962;48.646;9.026;2022-10-22T00:54:33;11.80;99.90
30150;DHT22;16962;48.646;9.026;2022-10-22T00:57:21;11.80;99.90
30150;DHT22;16962;48.646;9.026;2022-10-22T01:00:09;11.80;99.90
30150;DHT22;16962;48.646;9.026;2022-10-22T01:02:59;11.80;99.90
30150;DHT22;16962;48.646;9.026;2022-10-22T01:09:12;11.80;99.90
30150;DHT22;16962;48.646;9.026;2022-10-22T01:12:09;11.80;99.90
30150;DHT22;16962;48.646;9.026;2022-10-22T01:18:07;11.80;99.90
30150;DHT22;16962;48.646;9.026;2022-10-22T01:21:10;11.70;99.90
30150;DHT22;16962;48.646;9.026;2022-10-22T01:30:08;11.70;99.90
30150;DHT22;16962;48.646;9.026;2022-10-22T01:33:01;11.80;99.90
30150;DHT22;16962;48.646;9.026;2022-10-22T01:35:52;11.80;99.90
30150;DHT22;16962;48.646;9.026;2022-10-22T01:38:42;11.80;99.90
30150;DHT22;16962;48.646;9.026;2022-10-22T01:41:38;11.80;99.90
30150;DHT22;16962;48.646;9.026;2022-10-22T01:44:29;11.80;99.90
30150;DHT22;16962;48.646;9.026;2022-10-22T01:50:45;11.70;99.90
30150;DHT22;16962;48.646;9.026;2022-10-22T01:53:54;11.70;99.90
30150;DHT22;16962;48.646;9.026;2022-10-22T02:00:06;11.70;99.90
30150;DHT22;16962;48.646;9.026;2022-10-22T02:03:14;11.70;99.90
30150;DHT22;16962;48.646;9.026;2022-10-22T02:06:13;11.70;99.90
30150;DHT22;16962;48.646;9.026;2022-10-22T02:09:02;11.70;99.90
30150;DHT22;16962;48.646;9.026;2022-10-22T02:11:53;11.70;99.90
30150;DHT22;16962;48.646;9.026;2022-10-22T02:14:42;11.60;99.90
30150;DHT22;16962;48.646;9.026;2022-10-22T02:17:32;11.60;99.90
30150;DHT22;16962;48.646;9.026;2022-10-22T02:20:32;11.60;99.90
30150;DHT22;16962;48.646;9.026;2022-10-22T02:23:23;11.60;99.90
30150;DHT22;16962;48.646;9.026;2022-10-22T02:26:32;11.60;99.90
30150;DHT22;16962;48.646;9.026;2022-10-22T02:29:30;11.60;99.90
30150;DHT22;16962;48.646;9.026;2022-10-22T02:32:26;11.60;99.90
30150;DHT22;16962;48.646;9.026;2022-10-22T02:35:17;11.60;99.90
30150;DHT22;16962;48.646;9.026;2022-10-22T02:38:05;11.60;99.90
30150;DHT22;16962;48.646;9.026;2022-10-22T02:40:53;11.60;99.90
30150;DHT22;16962;48.646;9.026;2022-10-22T02:43:42;11.60;99.90
30150;DHT22;16962;48.646;9.026;2022-10-22T02:46:29;11.60;99.90
30150;DHT22;16962;48.646;9.026;2022-10-22T02:49:19;11.60;99.90
30150;DHT22;16962;48.646;9.026;2022-10-22T02:52:11;11.60;99.90
30150;DHT22;16962;48.646;9.026;2022-10-22T02:54:58;11.70;99.90
30150;DHT22;16962;48.646;9.026;2022-10-22T02:57:45;11.70;99.90
30150;DHT22;16962;48.646;9.026;2022-10-22T03:00:33;11.80;99.90
30150;DHT22;16962;48.646;9.026;2022-10-22T03:03:22;11.80;99.90
30150;DHT22;16962;48.646;9.026;2022-10-22T03:06:16;11.80;99.90
30150;DHT22;16962;48.646;9.026;2022-10-22T03:09:10;11.80;99.90
30150;DHT22;16962;48.646;9.026;2022-10-22T03:16:52;11.70;99.90
30150;DHT22;16962;48.646;9.026;2022-10-22T03:19:40;11.60;99.90
30150;DHT22;16962;48.646;9.026;2022-10-22T03:22:34;11.60;99.90
30150;DHT22;16962;48.646;9.026;2022-10-22T03:25:33;11.60;99.90
30150;DHT22;16962;48.646;9.026;2022-10-22T03:28:25;11.50;99.90
30150;DHT22;16962;48.646;9.026;2022-10-22T03:31:13;11.60;99.90
30150;DHT22;16962;48.646;9.026;2022-10-22T03:34:09;11.60;99.90
30150;DHT22;16962;48.646;9.026;2022-10-22T03:37:01;11.60;99.90
30150;DHT22;16962;48.646;9.026;2022-10-22T03:39:58;11.60;99.90
30150;DHT22;16962;48.646;9.026;2022-10-22T03:42:48;11.60;99.90
30150;DHT22;16962;48.646;9.026;2022-10-22T03:45:35;11.60;99.90
30150;DHT22;16962;48.646;9.026;2022-10-22T03:48:27;11.60;99.90
30150;DHT22;16962;48.646;9.026;2022-10-22T03:51:15;11.60;99.90
30150;DHT22;16962;48.646;9.026;2022-10-22T03:54:03;11.50;99.90
30150;DHT22;16962;48.646;9.026;2022-10-22T03:56:50;11.50;99.90
30150;DHT22;16962;48.646;9.026;2022-10-22T03:59:43;11.50;99.90
30150;DHT22;16962;48.646;9.026;2022-10-22T04:02:46;11.50;99.90
30150;DHT22;16962;48.646;9.026;2022-10-22T04:05:42;11.50;99.90
30150;DHT22;16962;48.646;9.026;2022-10-22T04:08:50;11.40;99.90
30150;DHT22;16962;48.646;9.026;2022-10-22T04:11:47;11.40;99.90
30150;DHT22;16962;48.646;9.026;2022-10-22T04:14:48;11.40;99.90
30150;DHT22;16962;48.646;9.026;2022-10-22T04:17:56;11.40;99.90
30150;DHT22;16962;48.646;9.026;2022-10-22T04:20:46;11.40;99.90
30150;DHT22;16962;48.646;9.026;2022-10-22T04:23:34;11.40;99.90
30150;DHT22;16962;48.646;9.026;2022-10-22T04:26:22;11.40;99.90
30150;DHT22;16962;48.646;9.026;2022-10-22T04:29:09;11.40;99.90
30150;DHT22;16962;48.646;9.026;2022-10-22T04:32:01;11.30;99.90
30150;DHT22;16962;48.646;9.026;2022-10-22T04:34:52;11.30;99.90
30150;DHT22;16962;48.646;9.026;2022-10-22T04:37:43;11.30;99.90
30150;DHT22;16962;48.646;9.026;2022-10-22T04:40:31;11.30;99.90
30150;DHT22;16962;48.646;9.026;2022-10-22T04:43:20;11.30;99.90
30150;DHT22;16962;48.646;9.026;2022-10-22T04:46:10;11.30;99.90
30150;DHT22;16962;48.646;9.026;2022-10-22T04:48:58;11.30;99.90
30150;DHT22;16962;48.646;9.026;2022-10-22T04:51:45;11.30;99.90
30150;DHT22;16962;48.646;9.026;2022-10-22T04:54:32;11.30;99.90
30150;DHT22;16962;48.646;9.026;2022-10-22T04:57:19;11.30;99.90
30150;DHT22;16962;48.646;9.026;2022-10-22T05:00:07;11.30;99.90
30150;DHT22;16962;48.646;9.026;2022-10-22T05:02:57;11.20;99.90
30150;DHT22;16962;48.646;9.026;2022-10-22T05:05:47;11.20;99.90
30150;DHT22;16962;48.646;9.026;2022-10-22T05:08:35;11.20;99.90
30150;DHT22;16962;48.646;9.026;2022-10-22T05:11:30;11.20;99.90
30150;DHT22;16962;48.646;9.026;2022-10-22T05:14:24;11.20;99.90
30150;DHT22;16962;48.646;9.026;2022-10-22T05:17:12;11.30;99.90
30150;DHT22;16962;48.646;9.026;2022-10-22T05:19:59;11.20;99.90
30150;DHT22;16962;48.646;9.026;2022-10-22T05:22:47;11.20;99.90
30150;DHT22;16962;48.646;9.026;2022-10-22T05:25:38;11.20;99.90
30150;DHT22;16962;48.646;9.026;2022-10-22T05:28:25;11.20;99.90
30150;DHT22;16962;48.646;9.026;2022-10-22T05:31:15;11.20;99.90
30150;DHT22;16962;48.646;9.026;2022-10-22T05:34:03;11.30;99.90
30150;DHT22;16962;48.646;9.026;2022-10-22T05:36:50;11.30;99.90
30150;DHT22;16962;48.646;9.026;2022-10-22T05:39:46;11.30;99.90
30150;DHT22;16962;48.646;9.026;2022-10-22T05:43:03;11.30;99.90
30150;DHT22;16962;48.646;9.026;2022-10-22T05:45:53;11.30;99.90
30150;DHT22;16962;48.646;9.026;2022-10-22T05:52:18;11.30;99.90
30150;DHT22;16962;48.646;9.026;2022-10-22T05:55:06;11.40;99.90
30150;DHT22;16962;48.646;9.026;2022-10-22T05:57:53;11.40;99.90
30150;DHT22;16962;48.646;9.026;2022-10-22T06:00:44;11.40;99.90
30150;DHT22;16962;48.646;9.026;2022-10-22T06:03:40;11.40;99.90
30150;DHT22;16962;48.646;9.026;2022-10-22T06:09:34;11.40;99.90
30150;DHT22;16962;48.646;9.026;2022-10-22T06:12:26;11.40;99.90
30150;DHT22;16962;48.646;9.026;2022-10-22T06:15:16;11.50;99.90
30150;DHT22;16962;48.646;9.026;2022-10-22T06:18:03;11.50;99.90
30150;DHT22;16962;48.646;9.026;2022-10-22T06:20:50;11.50;99.90
30150;DHT22;16962;48.646;9.026;2022-10-22T06:23:38;11.50;99.90
30150;DHT22;16962;48.646;9.026;2022-10-22T06:26:26;11.60;99.90
30150;DHT22;16962;48.646;9.026;2022-10-22T06:29:13;11.60;99.90
30150;DHT22;16962;48.646;9.026;2022-10-22T06:32:04;11.70;99.90
30150;DHT22;16962;48.646;9.026;2022-10-22T06:34:54;11.70;99.90
30150;DHT22;16962;48.646;9.026;2022-10-22T06:37:43;11.80;99.90
30150;DHT22;16962;48.646;9.026;2022-10-22T06:40:33;11.80;99.90
30150;DHT22;16962;48.646;9.026;2022-10-22T06:43:20;11.80;99.90
30150;DHT22;16962;48.646;9.026;2022-10-22T06:46:15;11.80;99.90
30150;DHT22;16962;48.646;9.026;2022-10-22T06:49:06;11.80;99.90
30150;DHT22;16962;48.646;9.026;2022-10-22T06:51:53;11.90;99.90
30150;DHT22;16962;48.646;9.026;2022-10-22T06:54:40;11.90;99.90
30150;DHT22;16962;48.646;9.026;2022-10-22T06:57:30;11.90;99.90
30150;DHT22;16962;48.646;9.026;2022-10-22T07:00:19;12.00;99.90
30150;DHT22;16962;48.646;9.026;2022-10-22T07:03:11;12.00;99.90
30150;DHT22;16962;48.646;9.026;2022-10-22T07:06:02;12.00;99.90
30150;DHT22;16962;48.646;9.026;2022-10-22T07:08:50;12.10;99.90
30150;DHT22;16962;48.646;9.026;2022-10-22T07:11:44;12.10;99.90
30150;DHT22;16962;48.646;9.026;2022-10-22T07:14:34;12.10;99.90
30150;DHT22;16962;48.646;9.026;2022-10-22T07:17:21;12.10;99.90
30150;DHT22;16962;48.646;9.026;2022-10-22T07:20:09;12.10;99.90
30150;DHT22;16962;48.646;9.026;2022-10-22T07:22:56;12.20;99.90
30150;DHT22;16962;48.646;9.026;2022-10-22T07:25:44;12.20;99.90
30150;DHT22;16962;48.646;9.026;2022-10-22T07:28:32;12.20;99.90
30150;DHT22;16962;48.646;9.026;2022-10-22T07:31:19;12.30;99.90
30150;DHT22;16962;48.646;9.026;2022-10-22T07:34:07;12.30;99.90
30150;DHT22;16962;48.646;9.026;2022-10-22T07:36:55;12.40;99.90
30150;DHT22;16962;48.646;9.026;2022-10-22T07:39:43;12.40;99.90
30150;DHT22;16962;48.646;9.026;2022-10-22T07:42:32;12.50;99.90
30150;DHT22;16962;48.646;9.026;2022-10-22T07:45:19;12.50;99.90
30150;DHT22;16962;48.646;9.026;2022-10-22T07:48:12;12.50;99.90
30150;DHT22;16962;48.646;9.026;2022-10-22T07:50:59;12.50;99.90
30150;DHT22;16962;48.646;9.026;2022-10-22T07:53:51;12.50;99.90
30150;DHT22;16962;48.646;9.026;2022-10-22T07:56:38;12.50;99.90
30150;DHT22;16962;48.646;9.026;2022-10-22T07:59:26;12.60;86.20
30150;DHT22;16962;48.646;9.026;2022-10-22T08:02:18;12.70;81.30
30150;DHT22;16962;48.646;9.026;2022-10-22T08:08:21;12.80;1.00
30150;DHT22;16962;48.646;9.026;2022-10-22T08:11:21;12.90;1.00
30150;DHT22;16962;48.646;9.026;2022-10-22T08:14:14;13.00;99.90
30150;DHT22;16962;48.646;9.026;2022-10-22T08:17:09;13.00;99.90
30150;DHT22;16962;48.646;9.026;2022-10-22T08:20:16;13.30;7.40
30150;DHT22;16962;48.646;9.026;2022-10-22T08:23:12;13.70;1.00
30150;DHT22;16962;48.646;9.026;2022-10-22T08:26:24;14.40;1.00
30150;DHT22;16962;48.646;9.026;2022-10-22T08:29:11;15.00;1.00
30150;DHT22;16962;48.646;9.026;2022-10-22T08:32:00;15.10;99.90
30150;DHT22;16962;48.646;9.026;2022-10-22T08:34:48;14.80;99.90
30150;DHT22;16962;48.646;9.026;2022-10-22T08:37:36;14.70;99.90
30150;DHT22;16962;48.646;9.026;2022-10-22T08:40:36;14.60;78.70
30150;DHT22;16962;48.646;9.026;2022-10-22T08:49:58;15.90;99.90
30150;DHT22;16962;48.646;9.026;2022-10-22T08:52:54;16.00;99.90
30150;DHT22;16962;48.646;9.026;2022-10-22T08:55:43;16.10;59.90
30150;DHT22;16962;48.646;9.026;2022-10-22T08:58:56;16.80;1.00
30150;DHT22;16962;48.646;9.026;2022-10-22T09:01:47;17.50;99.90
30150;DHT22;16962;48.646;9.026;2022-10-22T09:04:45;17.70;99.90
30150;DHT22;16962;48.646;9.026;2022-10-22T09:07:42;17.80;99.90
30150;DHT22;16962;48.646;9.026;2022-10-22T09:10:35;18.10;99.90
30150;DHT22;16962;48.646;9.026;2022-10-22T09:13:26;18.70;27.50
30150;DHT22;16962;48.646;9.026;2022-10-22T09:16:21;18.90;1.00
30150;DHT22;16962;48.646;9.026;2022-10-22T09:19:19;18.70;1.00
30150;DHT22;16962;48.646;9.026;2022-10-22T09:25:23;17.90;1.00
30150;DHT22;16962;48.646;9.026;2022-10-22T09:28:14;18.40;1.00
30150;DHT22;16962;48.646;9.026;2022-10-22T09:31:13;19.30;1.00
30150;DHT22;16962;48.646;9.026;2022-10-22T09:34:03;20.10;1.00
30150;DHT22;16962;48.646;9.026;2022-10-22T09:36:59;20.40;1.00
30150;DHT22;16962;48.646;9.026;2022-10-22T09:39:51;20.40;99.90
30150;DHT22;16962;48.646;9.026;2022-10-22T09:42:44;19.80;99.90
30150;DHT22;16962;48.646;9.026;2022-10-22T09:45:44;20.00;99.90
30150;DHT22;16962;48.646;9.026;2022-10-22T09:48:40;20.50;99.90
30150;DHT22;16962;48.646;9.026;2022-10-22T09:54:40;20.50;99.90
30150;DHT22;16962;48.646;9.026;2022-10-22T09:57:29;20.50;99.90
30150;DHT22;16962;48.646;9.026;2022-10-22T10:00:25;20.60;99.90
30150;DHT22;16962;48.646;9.026;2022-10-22T10:03:25;20.50;99.90
30150;DHT22;16962;48.646;9.026;2022-10-22T10:06:21;20.50;99.90
30150;DHT22;16962;48.646;9.026;2022-10-22T10:09:19;20.80;99.90
30150;DHT22;16962;48.646;9.026;2022-10-22T10:12:35;21.40;99.90
30150;DHT22;16962;48.646;9.026;2022-10-22T10:18:46;22.00;99.90
30150;DHT22;16962;48.646;9.026;2022-10-22T10:21:54;21.90;99.90
30150;DHT22;16962;48.646;9.026;2022-10-22T10:25:22;22.00;99.90
30150;DHT22;16962;48.646;9.026;2022-10-22T10:37:00;22.90;99.90
30150;DHT22;16962;48.646;9.026;2022-10-22T10:43:18;23.50;99.90
30150;DHT22;16962;48.646;9.026;2022-10-22T10:52:34;23.10;99.90
30150;DHT22;16962;48.646;9.026;2022-10-22T11:08:34;25.40;99.90
30150;DHT22;16962;48.646;9.026;2022-10-22T11:12:01;25.20;99.90
30150;DHT22;16962;48.646;9.026;2022-10-22T11:18:47;25.40;99.90
30150;DHT22;16962;48.646;9.026;2022-10-22T11:21:49;25.40;99.90
30150;DHT22;16962;48.646;9.026;2022-10-22T11:24:51;25.90;99.90
30150;DHT22;16962;48.646;9.026;2022-10-22T11:28:19;26.50;99.90
30150;DHT22;16962;48.646;9.026;2022-10-22T11:34:55;26.80;80.40
30150;DHT22;16962;48.646;9.026;2022-10-22T11:37:44;25.70;77.60
30150;DHT22;16962;48.646;9.026;2022-10-22T11:40:56;24.70;78.10
30150;DHT22;16962;48.646;9.026;2022-10-22T11:47:17;21.70;79.00
30150;DHT22;16962;48.646;9.026;2022-10-22T12:02:40;26.00;82.00
30150;DHT22;16962;48.646;9.026;2022-10-22T12:05:36;27.80;71.70
30150;DHT22;16962;48.646;9.026;2022-10-22T12:09:10;28.10;47.90
30150;DHT22;16962;48.646;9.026;2022-10-22T12:12:19;28.10;40.70
30150;DHT22;16962;48.646;9.026;2022-10-22T12:15:27;28.00;33.70
30150;DHT22;16962;48.646;9.026;2022-10-22T12:18:15;28.90;29.50
30150;DHT22;16962;48.646;9.026;2022-10-22T12:21:03;29.80;24.20
30150;DHT22;16962;48.646;9.026;2022-10-22T12:23:50;29.50;6.90
30150;DHT22;16962;48.646;9.026;2022-10-22T12:26:38;29.10;2.60
30150;DHT22;16962;48.646;9.026;2022-10-22T12:29:31;28.40;1.00
30150;DHT22;16962;48.646;9.026;2022-10-22T12:32:19;29.10;1.30
30150;DHT22;16962;48.646;9.026;2022-10-22T12:35:15;29.30;1.00
30150;DHT22;16962;48.646;9.026;2022-10-22T12:38:14;28.60;1.00
30150;DHT22;16962;48.646;9.026;2022-10-22T12:41:03;27.60;1.00
30150;DHT22;16962;48.646;9.026;2022-10-22T12:43:58;26.70;1.00
30150;DHT22;16962;48.646;9.026;2022-10-22T12:46:48;26.40;1.00
30150;DHT22;16962;48.646;9.026;2022-10-22T12:49:46;26.40;1.00
30150;DHT22;16962;48.646;9.026;2022-10-22T12:52:34;26.20;1.00
30150;DHT22;16962;48.646;9.026;2022-10-22T12:55:22;25.70;1.00
30150;DHT22;16962;48.646;9.026;2022-10-22T12:58:16;26.30;1.00
30150;DHT22;16962;48.646;9.026;2022-10-22T13:01:10;26.40;1.00
30150;DHT22;16962;48.646;9.026;2022-10-22T13:10:23;25.20;1.00
30150;DHT22;16962;48.646;9.026;2022-10-22T13:13:59;25.30;1.00
30150;DHT22;16962;48.646;9.026;2022-10-22T13:20:17;26.40;1.00
30150;DHT22;16962;48.646;9.026;2022-10-22T13:23:18;26.30;1.00
30150;DHT22;16962;48.646;9.026;2022-10-22T13:26:16;25.70;1.00
30150;DHT22;16962;48.646;9.026;2022-10-22T13:29:10;25.70;1.00
30150;DHT22;16962;48.646;9.026;2022-10-22T13:32:01;25.50;1.00
30150;DHT22;16962;48.646;9.026;2022-10-22T13:34:48;25.60;1.00
30150;DHT22;16962;48.646;9.026;2022-10-22T13:37:36;25.50;1.00
30150;DHT22;16962;48.646;9.026;2022-10-22T13:40:25;25.60;1.00
30150;DHT22;16962;48.646;9.026;2022-10-22T13:43:15;25.40;1.00
30150;DHT22;16962;48.646;9.026;2022-10-22T13:46:07;25.80;1.00
30150;DHT22;16962;48.646;9.026;2022-10-22T13:48:58;26.40;1.00
30150;DHT22;16962;48.646;9.026;2022-10-22T13:51:46;26.60;1.00
30150;DHT22;16962;48.646;9.026;2022-10-22T13:54:33;26.80;1.00
30150;DHT22;16962;48.646;9.026;2022-10-22T13:57:21;27.70;1.00
30150;DHT22;16962;48.646;9.026;2022-10-22T14:10:53;27.20;1.00
30150;DHT22;16962;48.646;9.026;2022-10-22T14:13:40;26.30;1.00
30150;DHT22;16962;48.646;9.026;2022-10-22T14:16:31;26.00;1.00
30150;DHT22;16962;48.646;9.026;2022-10-22T14:19:23;26.70;1.00
30150;DHT22;16962;48.646;9.026;2022-10-22T14:22:26;27.10;1.00
30150;DHT22;16962;48.646;9.026;2022-10-22T14:25:25;27.50;1.00
30150;DHT22;16962;48.646;9.026;2022-10-22T14:28:13;26.90;1.00
30150;DHT22;16962;48.646;9.026;2022-10-22T14:31:01;26.50;1.00
30150;DHT22;16962;48.646;9.026;2022-10-22T14:33:49;24.70;1.00
30150;DHT22;16962;48.646;9.026;2022-10-22T14:36:36;24.50;1.00
30150;DHT22;16962;48.646;9.026;2022-10-22T14:39:30;25.30;1.00
30150;DHT22;16962;48.646;9.026;2022-10-22T14:42:36;25.00;1.00
30150;DHT22;16962;48.646;9.026;2022-10-22T14:45:31;25.10;1.00
30150;DHT22;16962;48.646;9.026;2022-10-22T14:48:18;25.20;1.00
30150;DHT22;16962;48.646;9.026;2022-10-22T14:51:16;24.60;1.00
30150;DHT22;16962;48.646;9.026;2022-10-22T14:54:04;24.10;1.00
30150;DHT22;16962;48.646;9.026;2022-10-22T14:56:51;23.80;1.00
30150;DHT22;16962;48.646;9.026;2022-10-22T14:59:39;23.10;1.00
30150;DHT22;16962;48.646;9.026;2022-10-22T15:02:27;22.80;1.00
30150;DHT22;16962;48.646;9.026;2022-10-22T15:05:16;23.00;1.00
30150;DHT22;16962;48.646;9.026;2022-10-22T15:08:04;23.20;1.00
30150;DHT22;16962;48.646;9.026;2022-10-22T15:14:29;23.20;1.00
30150;DHT22;16962;48.646;9.026;2022-10-22T15:17:20;23.10;1.00
30150;DHT22;16962;48.646;9.026;2022-10-22T15:20:10;22.70;1.00
30150;DHT22;16962;48.646;9.026;2022-10-22T15:23:00;22.50;1.00
30150;DHT22;16962;48.646;9.026;2022-10-22T15:25:47;22.50;1.00
30150;DHT22;16962;48.646;9.026;2022-10-22T15:28:36;22.60;1.00
30150;DHT22;16962;48.646;9.026;2022-10-22T15:34:34;22.30;1.00
30150;DHT22;16962;48.646;9.026;2022-10-22T15:37:22;22.10;1.00
30150;DHT22;16962;48.646;9.026;2022-10-22T15:40:12;21.90;1.00
30150;DHT22;16962;48.646;9.026;2022-10-22T15:42:59;21.70;1.00
30150;DHT22;16962;48.646;9.026;2022-10-22T15:46:09;21.00;1.00
30150;DHT22;16962;48.646;9.026;2022-10-22T15:48:57;20.30;1.00
30150;DHT22;16962;48.646;9.026;2022-10-22T15:51:45;19.60;1.00
30150;DHT22;16962;48.646;9.026;2022-10-22T15:54:36;19.00;1.00
30150;DHT22;16962;48.646;9.026;2022-10-22T15:57:26;18.50;2.50
30150;DHT22;16962;48.646;9.026;2022-10-22T16:00:14;18.00;11.80
30150;DHT22;16962;48.646;9.026;2022-10-22T16:03:04;17.70;25.60
30150;DHT22;16962;48.646;9.026;2022-10-22T16:05:52;17.40;46.30
30150;DHT22;16962;48.646;9.026;2022-10-22T16:08:43;17.20;73.40
30150;DHT22;16962;48.646;9.026;2022-10-22T16:11:36;16.90;93.20
30150;DHT22;16962;48.646;9.026;2022-10-22T16:14:24;16.70;99.90
30150;DHT22;16962;48.646;9.026;2022-10-22T16:17:18;16.60;99.90
30150;DHT22;16962;48.646;9.026;2022-10-22T16:20:06;16.50;99.90
30150;DHT22;16962;48.646;9.026;2022-10-22T16:22:54;16.30;99.90
30150;DHT22;16962;48.646;9.026;2022-10-22T16:25:44;16.20;99.90
30150;DHT22;16962;48.646;9.026;2022-10-22T16:28:33;16.10;99.90
30150;DHT22;16962;48.646;9.026;2022-10-22T16:31:20;16.00;99.90
30150;DHT22;16962;48.646;9.026;2022-10-22T16:34:08;15.90;99.90
30150;DHT22;16962;48.646;9.026;2022-10-22T16:36:57;15.80;99.90
30150;DHT22;16962;48.646;9.026;2022-10-22T16:39:45;15.80;99.90
30150;DHT22;16962;48.646;9.026;2022-10-22T16:42:32;15.70;99.90
30150;DHT22;16962;48.646;9.026;2022-10-22T16:45:19;15.60;99.90
30150;DHT22;16962;48.646;9.026;2022-10-22T16:48:08;15.50;99.90
30150;DHT22;16962;48.646;9.026;2022-10-22T16:50:56;15.30;99.90
30150;DHT22;16962;48.646;9.026;2022-10-22T16:53:46;15.20;99.90
30150;DHT22;16962;48.646;9.026;2022-10-22T16:56:52;15.00;99.90
30150;DHT22;16962;48.646;9.026;2022-10-22T16:59:40;14.70;99.90
30150;DHT22;16962;48.646;9.026;2022-10-22T17:02:28;14.50;99.90
30150;DHT22;16962;48.646;9.026;2022-10-22T17:05:16;14.30;99.90
30150;DHT22;16962;48.646;9.026;2022-10-22T17:08:03;14.10;99.90
30150;DHT22;16962;48.646;9.026;2022-10-22T17:10:52;13.90;99.90
30150;DHT22;16962;48.646;9.026;2022-10-22T17:13:40;13.70;99.90
30150;DHT22;16962;48.646;9.026;2022-10-22T17:16:28;13.50;99.90
30150;DHT22;16962;48.646;9.026;2022-10-22T17:19:15;13.30;99.90
30150;DHT22;16962;48.646;9.026;2022-10-22T17:22:03;13.20;1.00
30150;DHT22;16962;48.646;9.026;2022-10-22T17:25:11;13.00;1.00
30150;DHT22;16962;48.646;9.026;2022-10-22T17:28:03;12.90;1.00
30150;DHT22;16962;48.646;9.026;2022-10-22T17:31:00;12.70;58.60
30150;DHT22;16962;48.646;9.026;2022-10-22T17:33:49;12.60;99.90
30150;DHT22;16962;48.646;9.026;2022-10-22T17:36:37;12.50;99.90
30150;DHT22;16962;48.646;9.026;2022-10-22T17:39:25;12.40;99.90
30150;DHT22;16962;48.646;9.026;2022-10-22T17:42:13;12.40;99.90
30150;DHT22;16962;48.646;9.026;2022-10-22T17:45:00;12.40;1.00
30150;DHT22;16962;48.646;9.026;2022-10-22T17:47:48;12.30;1.00
30150;DHT22;16962;48.646;9.026;2022-10-22T17:50:55;12.20;1.00
30150;DHT22;16962;48.646;9.026;2022-10-22T17:53:57;12.00;81.70
30150;DHT22;16962;48.646;9.026;2022-10-22T17:57:21;11.80;99.90
30150;DHT22;16962;48.646;9.026;2022-10-22T18:00:09;11.70;99.90
30150;DHT22;16962;48.646;9.026;2022-10-22T18:06:46;11.60;1.00
30150;DHT22;16962;48.646;9.026;2022-10-22T18:09:34;11.50;1.00
30150;DHT22;16962;48.646;9.026;2022-10-22T18:12:21;11.60;1.00
30150;DHT22;16962;48.646;9.026;2022-10-22T18:15:09;11.60;33.40
30150;DHT22;16962;48.646;9.026;2022-10-22T18:17:57;11.60;99.90
30150;DHT22;16962;48.646;9.026;2022-10-22T18:20:48;11.60;99.90
30150;DHT22;16962;48.646;9.026;2022-10-22T18:23:36;11.70;99.90
30150;DHT22;16962;48.646;9.026;2022-10-22T18:26:23;11.70;99.90
30150;DHT22;16962;48.646;9.026;2022-10-22T18:29:16;11.70;99.90
30150;DHT22;16962;48.646;9.026;2022-10-22T18:32:04;11.70;99.90
30150;DHT22;16962;48.646;9.026;2022-10-22T18:34:59;11.70;99.90
30150;DHT22;16962;48.646;9.026;2022-10-22T18:37:46;11.70;99.90
30150;DHT22;16962;48.646;9.026;2022-10-22T18:40:34;11.70;59.10
30150;DHT22;16962;48.646;9.026;2022-10-22T18:43:22;11.80;24.40
30150;DHT22;16962;48.646;9.026;2022-10-22T18:46:09;11.70;1.00
30150;DHT22;16962;48.646;9.026;2022-10-22T18:48:57;11.80;1.00
30150;DHT22;16962;48.646;9.026;2022-10-22T18:51:45;11.80;1.00
30150;DHT22;16962;48.646;9.026;2022-10-22T18:54:38;12.00;1.00
30150;DHT22;16962;48.646;9.026;2022-10-22T18:57:26;12.20;99.90
30150;DHT22;16962;48.646;9.026;2022-10-22T19:00:14;12.30;93.60
30150;DHT22;16962;48.646;9.026;2022-10-22T19:03:01;12.40;1.00
30150;DHT22;16962;48.646;9.026;2022-10-22T19:05:51;12.60;99.90
30150;DHT22;16962;48.646;9.026;2022-10-22T19:08:42;12.70;99.90
30150;DHT22;16962;48.646;9.026;2022-10-22T19:11:31;12.90;99.90
30150;DHT22;16962;48.646;9.026;2022-10-22T19:14:19;12.80;99.90
30150;DHT22;16962;48.646;9.026;2022-10-22T19:17:08;12.90;99.90
30150;DHT22;16962;48.646;9.026;2022-10-22T19:19:56;12.90;99.90
30150;DHT22;16962;48.646;9.026;2022-10-22T19:22:43;12.90;99.90
30150;DHT22;16962;48.646;9.026;2022-10-22T19:25:31;12.80;99.90
30150;DHT22;16962;48.646;9.026;2022-10-22T19:28:19;12.70;99.90
30150;DHT22;16962;48.646;9.026;2022-10-22T19:31:11;12.50;99.90
30150;DHT22;16962;48.646;9.026;2022-10-22T19:34:00;12.40;99.90
30150;DHT22;16962;48.646;9.026;2022-10-22T19:36:48;12.20;99.90
30150;DHT22;16962;48.646;9.026;2022-10-22T19:39:40;12.20;99.90
30150;DHT22;16962;48.646;9.026;2022-10-22T19:42:29;12.20;1.00
30150;DHT22;16962;48.646;9.026;2022-10-22T19:45:17;12.20;1.00
30150;DHT22;16962;48.646;9.026;2022-10-22T19:48:05;12.20;1.00
30150;DHT22;16962;48.646;9.026;2022-10-22T19:51:02;12.20;1.00
30150;DHT22;16962;48.646;9.026;2022-10-22T19:53:56;12.10;7.00
30150;DHT22;16962;48.646;9.026;2022-10-22T19:56:45;12.00;74.00
30150;DHT22;16962;48.646;9.026;2022-10-22T19:59:33;12.00;99.90
30150;DHT22;16962;48.646;9.026;2022-10-22T20:02:22;11.90;99.90
30150;DHT22;16962;48.646;9.026;2022-10-22T20:05:12;11.80;99.90
30150;DHT22;16962;48.646;9.026;2022-10-22T20:07:59;11.70;99.90
30150;DHT22;16962;48.646;9.026;2022-10-22T20:10:48;11.60;99.90
30150;DHT22;16962;48.646;9.026;2022-10-22T20:13:36;11.60;1.00
30150;DHT22;16962;48.646;9.026;2022-10-22T20:16:29;11.60;99.90
30150;DHT22;16962;48.646;9.026;2022-10-22T20:19:19;11.50;99.90
30150;DHT22;16962;48.646;9.026;2022-10-22T20:22:06;11.50;1.00
30150;DHT22;16962;48.646;9.026;2022-10-22T20:24:54;11.60;99.90
30150;DHT22;16962;48.646;9.026;2022-10-22T20:27:42;11.50;99.90